UAE862 OMDB-OOMS
Flight info
| Callsign | UAE862 |
|---|---|
| Flight time | N/A |
| Altitude | 23000 |
| Route | ANVIX L223 TARDI N629 MUSUK T511 MCT |
| Aircraft | B77L/H-SDE1E2E3FGHIJ2J3J4J5M1RWXY/LB1D1 |
Departure
| Time | 2026-04-24 16:28 |
|---|---|
| Airport | Dubai International Airport (OMDB) |
Arrival
| Time | N/A |
|---|---|
| Airport | Muscat International Airport (OOMS) |
| Time | Latitude | Longitude | Altitude | Speed | Heading |
|---|---|---|---|---|---|
| 2026-04-24 15:51 | 25.25327 | 55.35501 | 31 ft | 0 kts | 211° |
| 2026-04-24 16:10 | 25.25328 | 55.35502 | 26 ft | 2 kts | 211° |
| 2026-04-24 16:11 | 25.25362 | 55.35524 | 28 ft | 4 kts | 212° |
| 2026-04-24 16:11 | 25.25366 | 55.35527 | 29 ft | 4 kts | 214° |
| 2026-04-24 16:11 | 25.25386 | 55.35546 | 31 ft | 4 kts | 236° |
| 2026-04-24 16:12 | 25.25392 | 55.35592 | 31 ft | 0 kts | 302° |
| 2026-04-24 16:18 | 25.25409 | 55.35561 | 27 ft | 8 kts | 301° |
| 2026-04-24 16:18 | 25.25483 | 55.35428 | 30 ft | 24 kts | 302° |
| 2026-04-24 16:19 | 25.25590 | 55.35238 | 29 ft | 0 kts | 302° |
| 2026-04-24 16:20 | 25.25634 | 55.35177 | 28 ft | 17 kts | 325° |
| 2026-04-24 16:20 | 25.25770 | 55.35215 | 29 ft | 12 kts | 31° |
| 2026-04-24 16:20 | 25.25876 | 55.35285 | 29 ft | 18 kts | 30° |
| 2026-04-24 16:21 | 25.25991 | 55.35540 | 30 ft | 26 kts | 108° |
| 2026-04-24 16:21 | 25.25964 | 55.35681 | 26 ft | 0 kts | 93° |
| 2026-04-24 16:22 | 25.25964 | 55.35682 | 26 ft | 0 kts | 93° |
| 2026-04-24 16:22 | 25.25802 | 55.35888 | 27 ft | 24 kts | 121° |
| 2026-04-24 16:22 | 25.25714 | 55.36047 | 27 ft | 24 kts | 122° |
| 2026-04-24 16:23 | 25.25625 | 55.36205 | 25 ft | 24 kts | 121° |
| 2026-04-24 16:23 | 25.25536 | 55.36363 | 27 ft | 24 kts | 121° |
| 2026-04-24 16:23 | 25.25446 | 55.36521 | 27 ft | 24 kts | 122° |
| 2026-04-24 16:24 | 25.25269 | 55.36836 | 26 ft | 24 kts | 122° |
| 2026-04-24 16:24 | 25.25180 | 55.36996 | 27 ft | 24 kts | 122° |
| 2026-04-24 16:24 | 25.25091 | 55.37154 | 28 ft | 24 kts | 122° |
| 2026-04-24 16:24 | 25.25002 | 55.37312 | 28 ft | 24 kts | 123° |
| 2026-04-24 16:25 | 25.24913 | 55.37468 | 28 ft | 24 kts | 121° |
| 2026-04-24 16:25 | 25.24825 | 55.37626 | 27 ft | 24 kts | 122° |
| 2026-04-24 16:25 | 25.24741 | 55.37776 | 27 ft | 12 kts | 121° |
| 2026-04-24 16:26 | 25.24679 | 55.37945 | 26 ft | 2 kts | 63° |
| 2026-04-24 16:26 | 25.24683 | 55.37952 | 27 ft | 1 kts | 56° |
| 2026-04-24 16:26 | 25.24742 | 55.38008 | 29 ft | 14 kts | 34° |
| 2026-04-24 16:27 | 25.24825 | 55.38000 | 29 ft | 14 kts | 301° |
| 2026-04-24 16:27 | 25.24840 | 55.37969 | 29 ft | 6 kts | 299° |
| 2026-04-24 16:27 | 25.24846 | 55.37958 | 29 ft | 6 kts | 300° |
| 2026-04-24 16:27 | 25.24932 | 55.37798 | 30 ft | 71 kts | 301° |
| 2026-04-24 16:28 | 25.25368 | 55.37030 | 34 ft | 165 kts | 303° |
| 2026-04-24 16:28 | 25.26117 | 55.35873 | 851 ft | 185 kts | 309° |
| 2026-04-24 16:28 | 25.27606 | 55.33278 | 2889 ft | 201 kts | 298° |
| 2026-04-24 16:29 | 25.28286 | 55.31954 | 3607 ft | 198 kts | 300° |
| 2026-04-24 16:29 | 25.28972 | 55.30638 | 4002 ft | 196 kts | 294° |
| 2026-04-24 16:29 | 25.28834 | 55.27637 | 4005 ft | 208 kts | 248° |
| 2026-04-24 16:30 | 25.27573 | 55.24715 | 4962 ft | 220 kts | 246° |
| 2026-04-24 16:30 | 25.26895 | 55.23147 | 5449 ft | 230 kts | 246° |
| 2026-04-24 16:30 | 25.26198 | 55.21527 | 6100 ft | 236 kts | 246° |
| 2026-04-24 16:31 | 25.25496 | 55.19892 | 6731 ft | 236 kts | 246° |
| 2026-04-24 16:31 | 25.24729 | 55.18230 | 7033 ft | 251 kts | 235° |
| 2026-04-24 16:31 | 25.23351 | 55.17024 | 7628 ft | 259 kts | 203° |
| 2026-04-24 16:31 | 25.21574 | 55.16711 | 8409 ft | 261 kts | 181° |
| 2026-04-24 16:32 | 25.19755 | 55.16931 | 8984 ft | 268 kts | 166° |
| 2026-04-24 16:32 | 25.18154 | 55.18016 | 9647 ft | 278 kts | 133° |
| 2026-04-24 16:32 | 25.17140 | 55.19833 | 10289 ft | 281 kts | 120° |
| 2026-04-24 16:32 | 25.16231 | 55.21770 | 10869 ft | 287 kts | 120° |
| 2026-04-24 16:33 | 25.15302 | 55.23725 | 11582 ft | 288 kts | 120° |
| 2026-04-24 16:33 | 25.14365 | 55.25688 | 12282 ft | 290 kts | 120° |
| 2026-04-24 16:33 | 25.13418 | 55.27668 | 12999 ft | 293 kts | 120° |
| 2026-04-24 16:33 | 25.12461 | 55.29666 | 13724 ft | 296 kts | 120° |
| 2026-04-24 16:34 | 25.11489 | 55.31687 | 14324 ft | 302 kts | 120° |
| 2026-04-24 16:34 | 25.10482 | 55.33808 | 14695 ft | 320 kts | 118° |
| 2026-04-24 16:34 | 25.09533 | 55.36079 | 15268 ft | 331 kts | 116° |
| 2026-04-24 16:34 | 25.08588 | 55.38423 | 15985 ft | 337 kts | 115° |
| 2026-04-24 16:35 | 25.07638 | 55.40761 | 16776 ft | 340 kts | 115° |
| 2026-04-24 16:35 | 25.06656 | 55.43213 | 17403 ft | 353 kts | 114° |
| 2026-04-24 16:35 | 25.05679 | 55.45755 | 17570 ft | 377 kts | 114° |
| 2026-04-24 16:35 | 25.04640 | 55.48490 | 17930 ft | 394 kts | 114° |
| 2026-04-24 16:36 | 25.03560 | 55.51312 | 18481 ft | 404 kts | 114° |
| 2026-04-24 16:36 | 25.02453 | 55.54186 | 19148 ft | 410 kts | 114° |
| 2026-04-24 16:36 | 25.01256 | 55.57048 | 19898 ft | 412 kts | 120° |
| 2026-04-24 16:36 | 24.99799 | 55.59779 | 20641 ft | 415 kts | 124° |
| 2026-04-24 16:37 | 24.98238 | 55.62479 | 21360 ft | 420 kts | 124° |
| 2026-04-24 16:37 | 24.96683 | 55.65221 | 22064 ft | 425 kts | 123° |
| 2026-04-24 16:37 | 24.95146 | 55.68026 | 22741 ft | 430 kts | 123° |
| 2026-04-24 16:37 | 24.93584 | 55.70864 | 23409 ft | 435 kts | 125° |
| 2026-04-24 16:38 | 24.91847 | 55.73604 | 23998 ft | 438 kts | 129° |
| 2026-04-24 16:38 | 24.90009 | 55.76286 | 24642 ft | 440 kts | 130° |
| 2026-04-24 16:38 | 24.88154 | 55.78978 | 25313 ft | 442 kts | 129° |
| 2026-04-24 16:38 | 24.86317 | 55.81701 | 25947 ft | 445 kts | 128° |
| 2026-04-24 16:39 | 24.84483 | 55.84460 | 26505 ft | 449 kts | 128° |
| 2026-04-24 16:39 | 24.82628 | 55.87246 | 26919 ft | 451 kts | 128° |
| 2026-04-24 16:39 | 24.80762 | 55.90016 | 26903 ft | 450 kts | 129° |
| 2026-04-24 16:39 | 24.78898 | 55.92769 | 26908 ft | 448 kts | 129° |
| 2026-04-24 16:40 | 24.76920 | 55.95407 | 26914 ft | 446 kts | 137° |
| 2026-04-24 16:40 | 24.74654 | 55.97733 | 26917 ft | 446 kts | 141° |
| 2026-04-24 16:40 | 24.72306 | 55.99971 | 26920 ft | 447 kts | 141° |
| 2026-04-24 16:40 | 24.69990 | 56.02260 | 26929 ft | 449 kts | 140° |
| 2026-04-24 16:41 | 24.62739 | 56.09704 | 26920 ft | 449 kts | 139° |
| 2026-04-24 16:41 | 24.60458 | 56.12039 | 26926 ft | 448 kts | 139° |
| 2026-04-24 16:42 | 24.58184 | 56.14373 | 26927 ft | 447 kts | 139° |
| 2026-04-24 16:42 | 24.56004 | 56.16818 | 26928 ft | 448 kts | 133° |
| 2026-04-24 16:42 | 24.53979 | 56.19412 | 26926 ft | 447 kts | 132° |
| 2026-04-24 16:42 | 24.51962 | 56.22016 | 26928 ft | 447 kts | 132° |
| 2026-04-24 16:43 | 24.49946 | 56.24611 | 26936 ft | 446 kts | 133° |
| 2026-04-24 16:43 | 24.47925 | 56.27201 | 26929 ft | 446 kts | 133° |
| 2026-04-24 16:43 | 24.45905 | 56.29783 | 26923 ft | 446 kts | 133° |
| 2026-04-24 16:43 | 24.43880 | 56.32360 | 26906 ft | 446 kts | 133° |
| 2026-04-24 16:44 | 24.41850 | 56.34938 | 26900 ft | 446 kts | 133° |
| 2026-04-24 16:44 | 24.39818 | 56.37516 | 26897 ft | 447 kts | 133° |
| 2026-04-24 16:44 | 24.38353 | 56.39376 | 26888 ft | 447 kts | 133° |
| 2026-04-24 16:44 | 24.36319 | 56.41957 | 26887 ft | 447 kts | 133° |
| 2026-04-24 16:45 | 24.34288 | 56.44536 | 26885 ft | 447 kts | 133° |
| 2026-04-24 16:45 | 24.32253 | 56.47116 | 26876 ft | 448 kts | 133° |
| 2026-04-24 16:45 | 24.30217 | 56.49703 | 26873 ft | 448 kts | 132° |
| 2026-04-24 16:45 | 24.28308 | 56.52403 | 26873 ft | 449 kts | 128° |
| 2026-04-24 16:46 | 24.26478 | 56.55173 | 26879 ft | 449 kts | 127° |
| 2026-04-24 16:46 | 24.24654 | 56.57951 | 26874 ft | 449 kts | 127° |
| 2026-04-24 16:46 | 24.22827 | 56.60731 | 26874 ft | 449 kts | 127° |
| 2026-04-24 16:46 | 24.20998 | 56.63505 | 26883 ft | 449 kts | 128° |
| 2026-04-24 16:47 | 24.19162 | 56.66276 | 26882 ft | 449 kts | 128° |
| 2026-04-24 16:47 | 24.17328 | 56.69040 | 26888 ft | 449 kts | 128° |
| 2026-04-24 16:47 | 24.15487 | 56.71808 | 26895 ft | 449 kts | 128° |
| 2026-04-24 16:47 | 24.13651 | 56.74567 | 26895 ft | 449 kts | 128° |
| 2026-04-24 16:48 | 24.11811 | 56.77329 | 26904 ft | 449 kts | 128° |
| 2026-04-24 16:48 | 24.09970 | 56.80094 | 26910 ft | 449 kts | 128° |
| 2026-04-24 16:48 | 24.08753 | 56.81921 | 26912 ft | 449 kts | 128° |
| 2026-04-24 16:48 | 24.06914 | 56.84679 | 26905 ft | 449 kts | 128° |
| 2026-04-24 16:49 | 24.05074 | 56.87438 | 26903 ft | 449 kts | 128° |
| 2026-04-24 16:49 | 24.03232 | 56.90195 | 26911 ft | 449 kts | 128° |
| 2026-04-24 16:49 | 24.01384 | 56.92948 | 26911 ft | 449 kts | 128° |
| 2026-04-24 16:49 | 23.99535 | 56.95696 | 26904 ft | 449 kts | 128° |
| 2026-04-24 16:50 | 23.98307 | 56.97520 | 26910 ft | 449 kts | 128° |
| 2026-04-24 16:50 | 23.95829 | 57.01201 | 26911 ft | 450 kts | 128° |
| 2026-04-24 16:50 | 23.93976 | 57.03954 | 26919 ft | 450 kts | 128° |
| 2026-04-24 16:50 | 23.92121 | 57.06710 | 26900 ft | 450 kts | 128° |
| 2026-04-24 16:51 | 23.90267 | 57.09463 | 26915 ft | 450 kts | 128° |
| 2026-04-24 16:51 | 23.88412 | 57.12215 | 26921 ft | 450 kts | 128° |
| 2026-04-24 16:51 | 23.86562 | 57.14968 | 26903 ft | 449 kts | 127° |
| 2026-04-24 16:51 | 23.84715 | 57.17718 | 26901 ft | 449 kts | 127° |
| 2026-04-24 16:52 | 23.82870 | 57.20463 | 26914 ft | 448 kts | 127° |
| 2026-04-24 16:52 | 23.81074 | 57.23225 | 26897 ft | 443 kts | 121° |
| 2026-04-24 16:52 | 23.79940 | 57.26344 | 26922 ft | 445 kts | 101° |
| 2026-04-24 16:52 | 23.79756 | 57.29712 | 26913 ft | 447 kts | 83° |
| 2026-04-24 16:53 | 23.80107 | 57.33024 | 26741 ft | 434 kts | 89° |
| 2026-04-24 16:53 | 23.79770 | 57.36247 | 26399 ft | 419 kts | 99° |
| 2026-04-24 16:53 | 23.79626 | 57.39378 | 26048 ft | 411 kts | 83° |
| 2026-04-24 16:53 | 23.80326 | 57.42372 | 25674 ft | 404 kts | 66° |
| 2026-04-24 16:54 | 23.81353 | 57.45194 | 25261 ft | 399 kts | 70° |
| 2026-04-24 16:54 | 23.82185 | 57.48080 | 24853 ft | 396 kts | 73° |
| 2026-04-24 16:54 | 23.82889 | 57.50969 | 24436 ft | 394 kts | 75° |
| 2026-04-24 16:54 | 23.83544 | 57.53878 | 24011 ft | 395 kts | 76° |
| 2026-04-24 16:55 | 23.84188 | 57.56803 | 23584 ft | 396 kts | 76° |
| 2026-04-24 16:55 | 23.84834 | 57.59733 | 23111 ft | 398 kts | 76° |
| 2026-04-24 16:55 | 23.85486 | 57.62666 | 22648 ft | 397 kts | 76° |
| 2026-04-24 16:55 | 23.86140 | 57.65593 | 22207 ft | 396 kts | 76° |
| 2026-04-24 16:56 | 23.86795 | 57.68513 | 21784 ft | 395 kts | 76° |
| 2026-04-24 16:56 | 23.87439 | 57.71384 | 21369 ft | 394 kts | 76° |
| 2026-04-24 16:56 | 23.88061 | 57.74290 | 20940 ft | 390 kts | 80° |
| 2026-04-24 16:56 | 23.88100 | 57.77220 | 20508 ft | 384 kts | 100° |
| 2026-04-24 16:57 | 23.87585 | 57.80058 | 20143 ft | 379 kts | 101° |
| 2026-04-24 16:57 | 23.87083 | 57.82889 | 19700 ft | 383 kts | 101° |
| 2026-04-24 16:57 | 23.86592 | 57.85780 | 19282 ft | 389 kts | 100° |
| 2026-04-24 16:57 | 23.86111 | 57.88691 | 18857 ft | 390 kts | 100° |
| 2026-04-24 16:58 | 23.85638 | 57.91598 | 18428 ft | 388 kts | 100° |
| 2026-04-24 16:58 | 23.85171 | 57.94493 | 17980 ft | 385 kts | 100° |
| 2026-04-24 16:58 | 23.84709 | 57.97366 | 17478 ft | 383 kts | 100° |
| 2026-04-24 16:58 | 23.84248 | 58.00226 | 17016 ft | 381 kts | 100° |
| 2026-04-24 16:59 | 23.83791 | 58.03067 | 16546 ft | 379 kts | 100° |
| 2026-04-24 16:59 | 23.83336 | 58.05890 | 16079 ft | 377 kts | 100° |
| 2026-04-24 16:59 | 23.82431 | 58.11493 | 15150 ft | 372 kts | 100° |
| 2026-04-24 17:00 | 23.81982 | 58.14268 | 14713 ft | 370 kts | 100° |
| 2026-04-24 17:00 | 23.81090 | 58.19773 | 13832 ft | 366 kts | 100° |
| 2026-04-24 17:00 | 23.80646 | 58.22499 | 13382 ft | 364 kts | 100° |
| 2026-04-24 17:01 | 23.79765 | 58.27910 | 12425 ft | 360 kts | 100° |
| 2026-04-24 17:01 | 23.79328 | 58.30593 | 11965 ft | 358 kts | 100° |
| 2026-04-24 17:02 | 23.78458 | 58.35926 | 11052 ft | 355 kts | 100° |
| 2026-04-24 17:02 | 23.78024 | 58.38575 | 10602 ft | 354 kts | 100° |
| 2026-04-24 17:02 | 23.77562 | 58.41194 | 10153 ft | 346 kts | 105° |
| 2026-04-24 17:02 | 23.76470 | 58.43477 | 9786 ft | 339 kts | 133° |
| 2026-04-24 17:03 | 23.72573 | 58.45732 | 9632 ft | 308 kts | 174° |
| 2026-04-24 17:03 | 23.70513 | 58.45726 | 9519 ft | 294 kts | 192° |
| 2026-04-24 17:03 | 23.68509 | 58.45441 | 9198 ft | 286 kts | 182° |
| 2026-04-24 17:04 | 23.66530 | 58.45694 | 8881 ft | 287 kts | 166° |
| 2026-04-24 17:04 | 23.63093 | 58.47815 | 8019 ft | 297 kts | 135° |
| 2026-04-24 17:04 | 23.61817 | 58.49568 | 7566 ft | 301 kts | 120° |
| 2026-04-24 17:05 | 23.60972 | 58.51637 | 7218 ft | 300 kts | 106° |
| 2026-04-24 17:05 | 23.60604 | 58.53891 | 6659 ft | 307 kts | 92° |
| 2026-04-24 17:05 | 23.61423 | 58.58490 | 5507 ft | 313 kts | 61° |
| 2026-04-24 17:06 | 23.62806 | 58.60252 | 4878 ft | 300 kts | 31° |
| 2026-04-24 17:06 | 23.66551 | 58.60745 | 3950 ft | 259 kts | 344° |
| 2026-04-24 17:06 | 23.68160 | 58.60043 | 3809 ft | 243 kts | 331° |
| 2026-04-24 17:07 | 23.69104 | 58.59410 | 3752 ft | 238 kts | 325° |
| 2026-04-24 17:07 | 23.70577 | 58.57722 | 3587 ft | 225 kts | 292° |
| 2026-04-24 17:07 | 23.69658 | 58.54793 | 3574 ft | 221 kts | 223° |
| 2026-04-24 17:08 | 23.67352 | 58.52634 | 3481 ft | 207 kts | 222° |
| 2026-04-24 17:08 | 23.66273 | 58.51640 | 3454 ft | 200 kts | 221° |
| 2026-04-24 17:08 | 23.65211 | 58.50664 | 3454 ft | 199 kts | 221° |
| 2026-04-24 17:09 | 23.63372 | 58.48465 | 3117 ft | 187 kts | 242° |
| 2026-04-24 17:09 | 23.62568 | 58.45963 | 2808 ft | 169 kts | 258° |
| 2026-04-24 17:10 | 23.62351 | 58.44726 | 2672 ft | 162 kts | 261° |
| 2026-04-24 17:10 | 23.61868 | 58.41092 | 2291 ft | 159 kts | 262° |
| 2026-04-24 17:11 | 23.61603 | 58.37460 | 1299 ft | 157 kts | 263° |
| 2026-04-24 17:12 | 23.61075 | 58.31663 | 480 ft | 148 kts | 266° |